^^
Meteo Knjazevac Station Historical Data
Daily Summary for April 21, 2021 Units:  Both    English   Metric
Daily Weekly Monthly Yearly Custom
  High: Low: Average:
Temperature: 79.5 °F /  26.4 °C 62.1 °F /  16.7 °C 70.3 °F /  21.3 °C
Dew Point: 65 °F /  18.3 °C 58.7 °F /  14.8 °C 61.5 °F /  16.4 °C
Humidity: 99% 54% 76%
Wind Speed: 13mph /  20.9km/h - 4.6mph /  7.4km/h
Wind Gust: 22mph /  35.4km/h - -
Wind- - WSW
Pressure: 30.15 in /  1020.9 hPa 30.07 in /  1018.2 hPa -
Precipitation: 0.00 in /  0 mm    
Historical Graphs
 
 
Tabular Data for April 21, 2021
Time Temperature Dew Point Pressure Wind Wind Speed Wind Gust Humidity Rainfall Rate (Hourly) solar Conditions
00:00 67.1 °F /  19.5 °C 65 °F /  18.3 °C 30.07in /  1018.2hPa NE 1mph /  1.6km/h 3mph /  4.8km/h 93% 0.00in /  0mm 0 W/m2
00:10 66.9 °F /  19.4 °C 64.8 °F /  18.2 °C 30.07in /  1018.2hPa ENE 2mph /  3.2km/h 7mph /  11.3km/h 93% 0.00in /  0mm 0 W/m2
00:20 66.6 °F /  19.2 °C 64.5 °F /  18.1 °C 30.07in /  1018.2hPa NNE 1mph /  1.6km/h 3mph /  4.8km/h 93% 0.00in /  0mm 0 W/m2
00:30 66.4 °F /  19.1 °C 64.6 °F /  18.1 °C 30.07in /  1018.2hPa WSW 1mph /  1.6km/h 3mph /  4.8km/h 94% 0.00in /  0mm 0 W/m2
00:40 66 °F /  18.9 °C 64.2 °F /  17.9 °C 30.07in /  1018.2hPa West 1mph /  1.6km/h 4mph /  6.4km/h 94% 0.00in /  0mm 0 W/m2
00:50 65.8 °F /  18.8 °C 64.4 °F /  18 °C 30.07in /  1018.2hPa SSW 2mph /  3.2km/h 3mph /  4.8km/h 95% 0.00in /  0mm 0 W/m2
01:00 65.7 °F /  18.7 °C 64.2 °F /  17.9 °C 30.07in /  1018.2hPa Calm   3mph /  4.8km/h 95% 0.00in /  0mm 0 W/m2
01:10 65.5 °F /  18.6 °C 64 °F /  17.8 °C 30.07in /  1018.2hPa WSW 2mph /  3.2km/h 3mph /  4.8km/h 95% 0.00in /  0mm 0 W/m2
01:20 65.3 °F /  18.5 °C 64.1 °F /  17.8 °C 30.07in /  1018.2hPa WSW 2mph /  3.2km/h 5mph /  8km/h 96% 0.00in /  0mm 0 W/m2
01:30 65.1 °F /  18.4 °C 64 °F /  17.8 °C 30.07in /  1018.2hPa SW 2mph /  3.2km/h 3mph /  4.8km/h 96% 0.00in /  0mm 0 W/m2
01:40 64.6 °F /  18.1 °C 63.4 °F /  17.4 °C 30.07in /  1018.2hPa WSW 1mph /  1.6km/h 3mph /  4.8km/h 96% 0.00in /  0mm 0 W/m2
01:50 64.6 °F /  18.1 °C 64 °F /  17.8 °C 30.07in /  1018.2hPa WSW 1mph /  1.6km/h 2mph /  3.2km/h 98% 0.00in /  0mm 0 W/m2
02:00 64.6 °F /  18.1 °C 64 °F /  17.8 °C 30.07in /  1018.2hPa West 1mph /  1.6km/h 2mph /  3.2km/h 98% 0.00in /  0mm 0 W/m2
02:10 64.6 °F /  18.1 °C 64.3 °F /  17.9 °C 30.07in /  1018.2hPa West 2mph /  3.2km/h 3mph /  4.8km/h 99% 0.00in /  0mm 0 W/m2
02:20 64.6 °F /  18.1 °C 64.3 °F /  17.9 °C 30.07in /  1018.2hPa WSW 2mph /  3.2km/h 2mph /  3.2km/h 99% 0.00in /  0mm 0 W/m2
02:30 64.4 °F /  18 °C 63.8 °F /  17.7 °C 30.07in /  1018.2hPa WSW 1mph /  1.6km/h 3mph /  4.8km/h 98% 0.00in /  0mm 0 W/m2
02:40 64.4 °F /  18 °C 63.8 °F /  17.7 °C 30.07in /  1018.2hPa WSW 1mph /  1.6km/h 3mph /  4.8km/h 98% 0.00in /  0mm 0 W/m2
02:50 64.4 °F /  18 °C 64.1 °F /  17.8 °C 30.07in /  1018.2hPa Calm   3mph /  4.8km/h 99% 0.00in /  0mm 0 W/m2
03:00 64.4 °F /  18 °C 64.1 °F /  17.8 °C 30.08in /  1018.5hPa West 1mph /  1.6km/h 2mph /  3.2km/h 99% 0.00in /  0mm 0 W/m2
03:10 64.4 °F /  18 °C 63.8 °F /  17.7 °C 30.08in /  1018.5hPa Calm   2mph /  3.2km/h 98% 0.00in /  0mm 0 W/m2
03:20 63.9 °F /  17.7 °C 63.3 °F /  17.4 °C 30.08in /  1018.5hPa West 1mph /  1.6km/h 2mph /  3.2km/h 98% 0.00in /  0mm 0 W/m2
03:30 63.5 °F /  17.5 °C 62.9 °F /  17.2 °C 30.08in /  1018.5hPa West 1mph /  1.6km/h 3mph /  4.8km/h 98% 0.00in /  0mm 0 W/m2
03:40 63.3 °F /  17.4 °C 63 °F /  17.2 °C 30.08in /  1018.5hPa WNW 1mph /  1.6km/h 3mph /  4.8km/h 99% 0.00in /  0mm 0 W/m2
03:50 63.3 °F /  17.4 °C 63 °F /  17.2 °C 30.08in /  1018.5hPa SSW 1mph /  1.6km/h 3mph /  4.8km/h 99% 0.00in /  0mm 0 W/m2
04:00 63.3 °F /  17.4 °C 63 °F /  17.2 °C 30.08in /  1018.5hPa SW 1mph /  1.6km/h 3mph /  4.8km/h 99% 0.00in /  0mm 0 W/m2
04:10 63.1 °F /  17.3 °C 62.9 °F /  17.2 °C 30.08in /  1018.5hPa WSW 1mph /  1.6km/h 2mph /  3.2km/h 99% 0.00in /  0mm 0 W/m2
04:20 63 °F /  17.2 °C 62.7 °F /  17.1 °C 30.08in /  1018.5hPa Calm   1mph /  1.6km/h 99% 0.00in /  0mm 0 W/m2
04:30 63 °F /  17.2 °C 62.7 °F /  17.1 °C 30.08in /  1018.5hPa WNW 1mph /  1.6km/h 3mph /  4.8km/h 99% 0.00in /  0mm 0 W/m2
04:40 62.8 °F /  17.1 °C 62.5 °F /  16.9 °C 30.08in /  1018.5hPa SSW 1mph /  1.6km/h 3mph /  4.8km/h 99% 0.00in /  0mm 0 W/m2
04:50 62.6 °F /  17 °C 62.3 °F /  16.8 °C 30.08in /  1018.5hPa South 1mph /  1.6km/h 3mph /  4.8km/h 99% 0.00in /  0mm 0 W/m2
05:00 62.6 °F /  17 °C 62.3 °F /  16.8 °C 30.09in /  1018.8hPa North 2mph /  3.2km/h 4mph /  6.4km/h 99% 0.00in /  0mm 0 W/m2
05:10 62.4 °F /  16.9 °C 62.1 °F /  16.7 °C 30.09in /  1018.8hPa NE 3mph /  4.8km/h 6mph /  9.7km/h 99% 0.00in /  0mm 3 W/m2
05:20 62.4 °F /  16.9 °C 62.1 °F /  16.7 °C 30.09in /  1018.8hPa NE 5mph /  8km/h 7mph /  11.3km/h 99% 0.00in /  0mm 8 W/m2
05:30 62.4 °F /  16.9 °C 62.1 °F /  16.7 °C 30.10in /  1019.2hPa NE 5mph /  8km/h 7mph /  11.3km/h 99% 0.00in /  0mm 16 W/m2
05:40 62.2 °F /  16.8 °C 62 °F /  16.7 °C 30.10in /  1019.2hPa NE 2mph /  3.2km/h 7mph /  11.3km/h 99% 0.00in /  0mm 26 W/m2
05:50 62.1 °F /  16.7 °C 61.8 °F /  16.6 °C 30.10in /  1019.2hPa NE 5mph /  8km/h 8mph /  12.9km/h 99% 0.00in /  0mm 37 W/m2
06:00 62.1 °F /  16.7 °C 61.8 °F /  16.6 °C 30.10in /  1019.2hPa East 3mph /  4.8km/h 7mph /  11.3km/h 99% 0.00in /  0mm 55 W/m2
06:10 62.1 °F /  16.7 °C 61.8 °F /  16.6 °C 30.10in /  1019.2hPa North 2mph /  3.2km/h 6mph /  9.7km/h 99% 0.00in /  0mm 57 W/m2
06:20 62.2 °F /  16.8 °C 61.7 °F /  16.5 °C 30.11in /  1019.5hPa SSE 1mph /  1.6km/h 7mph /  11.3km/h 98% 0.00in /  0mm 98 W/m2
06:30 62.2 °F /  16.8 °C 61.7 °F /  16.5 °C 30.11in /  1019.5hPa North 1mph /  1.6km/h 5mph /  8km/h 98% 0.00in /  0mm 124 W/m2
06:40 62.4 °F /  16.9 °C 61.3 °F /  16.3 °C 30.11in /  1019.5hPa NE 1mph /  1.6km/h 4mph /  6.4km/h 96% 0.00in /  0mm 150 W/m2
06:50 62.6 °F /  17 °C 61.4 °F /  16.3 °C 30.11in /  1019.5hPa NNE 2mph /  3.2km/h 5mph /  8km/h 96% 0.00in /  0mm 178 W/m2
07:00 62.8 °F /  17.1 °C 61.6 °F /  16.4 °C 30.12in /  1019.9hPa NW 1mph /  1.6km/h 3mph /  4.8km/h 96% 0.00in /  0mm 214 W/m2
07:10 63.3 °F /  17.4 °C 61.9 °F /  16.6 °C 30.12in /  1019.9hPa SW 5mph /  8km/h 7mph /  11.3km/h 95% 0.00in /  0mm 238 W/m2
07:20 64 °F /  17.8 °C 62.3 °F /  16.8 °C 30.12in /  1019.9hPa SW 5mph /  8km/h 9mph /  14.5km/h 94% 0.00in /  0mm 248 W/m2
07:30 64.8 °F /  18.2 °C 61.8 °F /  16.6 °C 30.12in /  1019.9hPa WSW 5mph /  8km/h 13mph /  20.9km/h 90% 0.00in /  0mm 169 W/m2
07:40 65.1 °F /  18.4 °C 61.8 °F /  16.6 °C 30.12in /  1019.9hPa WSW 7mph /  11.3km/h 11mph /  17.7km/h 89% 0.00in /  0mm 295 W/m2
07:50 65.7 °F /  18.7 °C 62 °F /  16.7 °C 30.12in /  1019.9hPa WSW 6mph /  9.7km/h 12mph /  19.3km/h 88% 0.00in /  0mm 355 W/m2
08:00 66.4 °F /  19.1 °C 61.7 °F /  16.5 °C 30.13in /  1020.2hPa WSW 6mph /  9.7km/h 15mph /  24.1km/h 85% 0.00in /  0mm 407 W/m2
08:10 66.7 °F /  19.3 °C 62.1 °F /  16.7 °C 30.13in /  1020.2hPa WSW 7mph /  11.3km/h 13mph /  20.9km/h 85% 0.00in /  0mm 430 W/m2
08:20 67.1 °F /  19.5 °C 62.1 °F /  16.7 °C 30.13in /  1020.2hPa West 7mph /  11.3km/h 13mph /  20.9km/h 84% 0.00in /  0mm 473 W/m2
08:30 67.5 °F /  19.7 °C 62.1 °F /  16.7 °C 30.13in /  1020.2hPa West 7mph /  11.3km/h 13mph /  20.9km/h 83% 0.00in /  0mm 510 W/m2
08:40 67.8 °F /  19.9 °C 61.4 °F /  16.3 °C 30.13in /  1020.2hPa WSW 8mph /  12.9km/h 12mph /  19.3km/h 80% 0.00in /  0mm 551 W/m2
08:50 68.4 °F /  20.2 °C 61.6 °F /  16.4 °C 30.14in /  1020.5hPa West 6mph /  9.7km/h 14mph /  22.5km/h 79% 0.00in /  0mm 582 W/m2
09:00 69.1 °F /  20.6 °C 61.6 °F /  16.4 °C 30.13in /  1020.2hPa WSW 9mph /  14.5km/h 14mph /  22.5km/h 77% 0.00in /  0mm 606 W/m2
09:10 70.2 °F /  21.2 °C 61.5 °F /  16.4 °C 30.13in /  1020.2hPa WSW 8mph /  12.9km/h 13mph /  20.9km/h 74% 0.00in /  0mm 648 W/m2
09:20 70.9 °F /  21.6 °C 61.8 °F /  16.6 °C 30.13in /  1020.2hPa WSW 8mph /  12.9km/h 13mph /  20.9km/h 73% 0.00in /  0mm 676 W/m2
09:30 71.4 °F /  21.9 °C 61.9 °F /  16.6 °C 30.13in /  1020.2hPa WSW 9mph /  14.5km/h 15mph /  24.1km/h 72% 0.00in /  0mm 708 W/m2
09:40 72 °F /  22.2 °C 61.6 °F /  16.4 °C 30.13in /  1020.2hPa West 9mph /  14.5km/h 14mph /  22.5km/h 70% 0.00in /  0mm 734 W/m2
09:50 72.3 °F /  22.4 °C 60.7 °F /  15.9 °C 30.13in /  1020.2hPa West 9mph /  14.5km/h 14mph /  22.5km/h 67% 0.00in /  0mm 757 W/m2
10:00 72.7 °F /  22.6 °C 60.7 °F /  15.9 °C 30.13in /  1020.2hPa WSW 9mph /  14.5km/h 20mph /  32.2km/h 66% 0.00in /  0mm 779 W/m2
10:10 73 °F /  22.8 °C 60.6 °F /  15.9 °C 30.13in /  1020.2hPa WSW 9mph /  14.5km/h 17mph /  27.4km/h 65% 0.00in /  0mm 800 W/m2
10:20 73.4 °F /  23 °C 60.5 °F /  15.8 °C 30.13in /  1020.2hPa WSW 10mph /  16.1km/h 19mph /  30.6km/h 64% 0.00in /  0mm 820 W/m2
10:30 73.4 °F /  23 °C 60.5 °F /  15.8 °C 30.13in /  1020.2hPa WSW 8mph /  12.9km/h 20mph /  32.2km/h 64% 0.00in /  0mm 839 W/m2
10:40 73.6 °F /  23.1 °C 60.6 °F /  15.9 °C 30.13in /  1020.2hPa West 13mph /  20.9km/h 20mph /  32.2km/h 64% 0.00in /  0mm 856 W/m2
10:50 73.8 °F /  23.2 °C 60.8 °F /  16 °C 30.13in /  1020.2hPa WSW 9mph /  14.5km/h 22mph /  35.4km/h 64% 0.00in /  0mm 225 W/m2
11:00 74.1 °F /  23.4 °C 61.2 °F /  16.2 °C 30.13in /  1020.2hPa WSW 9mph /  14.5km/h 17mph /  27.4km/h 64% 0.00in /  0mm 887 W/m2
11:10 74.5 °F /  23.6 °C 60.6 °F /  15.9 °C 30.13in /  1020.2hPa WSW 9mph /  14.5km/h 18mph /  29km/h 62% 0.00in /  0mm 900 W/m2
11:20 74.7 °F /  23.7 °C 60.8 °F /  16 °C 30.13in /  1020.2hPa WSW 10mph /  16.1km/h 17mph /  27.4km/h 62% 0.00in /  0mm 300 W/m2
11:30 75 °F /  23.9 °C 60.2 °F /  15.7 °C 30.13in /  1020.2hPa WSW 12mph /  19.3km/h 21mph /  33.8km/h 60% 0.00in /  0mm 718 W/m2
11:40 74.9 °F /  23.8 °C 60 °F /  15.6 °C 30.13in /  1020.2hPa WSW 7mph /  11.3km/h 17mph /  27.4km/h 60% 0.01in /  0.25mm 533 W/m2
11:50 75.2 °F /  24 °C 60.4 °F /  15.8 °C 30.13in /  1020.2hPa WSW 7mph /  11.3km/h 17mph /  27.4km/h 60% 0.00in /  0mm 939 W/m2
12:00 75.6 °F /  24.2 °C 60.7 °F /  15.9 °C 30.12in /  1019.9hPa WSW 12mph /  19.3km/h 17mph /  27.4km/h 60% 0.01in /  0.25mm 945 W/m2
12:10 76.1 °F /  24.5 °C 61.2 °F /  16.2 °C 30.12in /  1019.9hPa West 9mph /  14.5km/h 17mph /  27.4km/h 60% 0.00in /  0mm 950 W/m2
12:20 76.5 °F /  24.7 °C 60.6 °F /  15.9 °C 30.12in /  1019.9hPa WSW 8mph /  12.9km/h 20mph /  32.2km/h 58% 0.00in /  0mm 953 W/m2
12:30 76.3 °F /  24.6 °C 59.9 °F /  15.5 °C 30.12in /  1019.9hPa West 10mph /  16.1km/h 18mph /  29km/h 57% 0.00in /  0mm 955 W/m2
12:40 76.6 °F /  24.8 °C 61.2 °F /  16.2 °C 30.12in /  1019.9hPa West 8mph /  12.9km/h 20mph /  32.2km/h 59% 0.00in /  0mm 955 W/m2
12:50 77.2 °F /  25.1 °C 61.3 °F /  16.3 °C 30.12in /  1019.9hPa West 10mph /  16.1km/h 17mph /  27.4km/h 58% 0.00in /  0mm 640 W/m2
13:00 76.8 °F /  24.9 °C 60.9 °F /  16.1 °C 30.12in /  1019.9hPa West 10mph /  16.1km/h 17mph /  27.4km/h 58% 0.00in /  0mm 350 W/m2
13:10 76.4 °F /  24.7 °C 60.5 °F /  15.8 °C 30.12in /  1019.9hPa West 9mph /  14.5km/h 18mph /  29km/h 58% 0.00in /  0mm 650 W/m2
13:20 76.6 °F /  24.8 °C 60.8 °F /  16 °C 30.12in /  1019.9hPa West 9mph /  14.5km/h 21mph /  33.8km/h 58% 0.00in /  0mm 939 W/m2
13:30 77 °F /  25 °C 61.1 °F /  16.2 °C 30.12in /  1019.9hPa West 10mph /  16.1km/h 17mph /  27.4km/h 58% 0.00in /  0mm 442 W/m2
13:40 77.2 °F /  25.1 °C 60.8 °F /  16 °C 30.12in /  1019.9hPa West 10mph /  16.1km/h 16mph /  25.7km/h 57% 0.00in /  0mm 923 W/m2
13:50 77 °F /  25 °C 60.6 °F /  15.9 °C 30.11in /  1019.5hPa West 8mph /  12.9km/h 20mph /  32.2km/h 57% 0.00in /  0mm 912 W/m2
14:00 77.3 °F /  25.2 °C 61.4 °F /  16.3 °C 30.11in /  1019.5hPa WNW 5mph /  8km/h 14mph /  22.5km/h 58% 0.00in /  0mm 448 W/m2
14:10 77 °F /  25 °C 61.1 °F /  16.2 °C 30.11in /  1019.5hPa West 9mph /  14.5km/h 15mph /  24.1km/h 58% 0.00in /  0mm 529 W/m2
14:20 76.3 °F /  24.6 °C 59.9 °F /  15.5 °C 30.11in /  1019.5hPa WSW 7mph /  11.3km/h 16mph /  25.7km/h 57% 0.00in /  0mm 622 W/m2
14:30 76.9 °F /  24.9 °C 61 °F /  16.1 °C 30.11in /  1019.5hPa West 8mph /  12.9km/h 15mph /  24.1km/h 58% 0.00in /  0mm 637 W/m2
14:40 76.6 °F /  24.8 °C 60.3 °F /  15.7 °C 30.11in /  1019.5hPa West 6mph /  9.7km/h 15mph /  24.1km/h 57% 0.00in /  0mm 252 W/m2
14:50 77.2 °F /  25.1 °C 60.8 °F /  16 °C 30.10in /  1019.2hPa WSW 8mph /  12.9km/h 14mph /  22.5km/h 57% 0.00in /  0mm 820 W/m2
15:00 77.7 °F /  25.4 °C 61.3 °F /  16.3 °C 30.10in /  1019.2hPa West 8mph /  12.9km/h 15mph /  24.1km/h 57% 0.00in /  0mm 800 W/m2
15:10 77.7 °F /  25.4 °C 60.2 °F /  15.7 °C 30.10in /  1019.2hPa WSW 10mph /  16.1km/h 19mph /  30.6km/h 55% 0.00in /  0mm 289 W/m2
15:20 78.1 °F /  25.6 °C 60.6 °F /  15.9 °C 30.10in /  1019.2hPa West 7mph /  11.3km/h 14mph /  22.5km/h 55% 0.00in /  0mm 756 W/m2
15:30 78.1 °F /  25.6 °C 60.1 °F /  15.6 °C 30.10in /  1019.2hPa West 8mph /  12.9km/h 16mph /  25.7km/h 54% 0.00in /  0mm 421 W/m2
15:40 77.7 °F /  25.4 °C 60.3 °F /  15.7 °C 30.10in /  1019.2hPa West 10mph /  16.1km/h 21mph /  33.8km/h 55% 0.00in /  0mm 709 W/m2
15:50 77.9 °F /  25.5 °C 60.5 °F /  15.8 °C 30.10in /  1019.2hPa West 7mph /  11.3km/h 18mph /  29km/h 55% 0.00in /  0mm 684 W/m2
16:00 78.3 °F /  25.7 °C 60.2 °F /  15.7 °C 30.10in /  1019.2hPa WNW 5mph /  8km/h 14mph /  22.5km/h 54% 0.00in /  0mm 509 W/m2
16:10 78.6 °F /  25.9 °C 60.6 °F /  15.9 °C 30.10in /  1019.2hPa WNW 8mph /  12.9km/h 15mph /  24.1km/h 54% 0.00in /  0mm 630 W/m2
16:20 78.8 °F /  26 °C 60.8 °F /  16 °C 30.10in /  1019.2hPa West 7mph /  11.3km/h 15mph /  24.1km/h 54% 0.00in /  0mm 603 W/m2
16:30 79 °F /  26.1 °C 60.9 °F /  16.1 °C 30.10in /  1019.2hPa West 6mph /  9.7km/h 16mph /  25.7km/h 54% 0.00in /  0mm 574 W/m2
16:40 79.3 °F /  26.3 °C 61.2 °F /  16.2 °C 30.10in /  1019.2hPa West 7mph /  11.3km/h 13mph /  20.9km/h 54% 0.00in /  0mm 545 W/m2
16:50 79.3 °F /  26.3 °C 61.2 °F /  16.2 °C 30.10in /  1019.2hPa WNW 7mph /  11.3km/h 13mph /  20.9km/h 54% 0.00in /  0mm 516 W/m2
17:00 79.4 °F /  26.3 °C 61.3 °F /  16.3 °C 30.10in /  1019.2hPa NW 8mph /  12.9km/h 14mph /  22.5km/h 54% 0.00in /  0mm 486 W/m2
17:10 79.5 °F /  26.4 °C 61.4 °F /  16.3 °C 30.10in /  1019.2hPa WNW 8mph /  12.9km/h 14mph /  22.5km/h 54% 0.00in /  0mm 450 W/m2
17:20 78.8 °F /  26 °C 61.3 °F /  16.3 °C 30.10in /  1019.2hPa WNW 6mph /  9.7km/h 13mph /  20.9km/h 55% 0.00in /  0mm 209 W/m2
17:30 78.7 °F /  25.9 °C 61.1 °F /  16.2 °C 30.10in /  1019.2hPa NW 7mph /  11.3km/h 13mph /  20.9km/h 55% 0.00in /  0mm 372 W/m2
17:40 78.6 °F /  25.9 °C 60.6 °F /  15.9 °C 30.10in /  1019.2hPa WNW 7mph /  11.3km/h 15mph /  24.1km/h 54% 0.00in /  0mm 349 W/m2
17:50 78.6 °F /  25.9 °C 61.6 °F /  16.4 °C 30.10in /  1019.2hPa NW 5mph /  8km/h 13mph /  20.9km/h 56% 0.00in /  0mm 318 W/m2
18:00 78.6 °F /  25.9 °C 61.1 °F /  16.2 °C 30.10in /  1019.2hPa NW 7mph /  11.3km/h 13mph /  20.9km/h 55% 0.00in /  0mm 274 W/m2
18:10 78.4 °F /  25.8 °C 60.9 °F /  16.1 °C 30.10in /  1019.2hPa NW 2mph /  3.2km/h 13mph /  20.9km/h 55% 0.00in /  0mm 248 W/m2
18:20 78.3 °F /  25.7 °C 60.8 °F /  16 °C 30.11in /  1019.5hPa NW 6mph /  9.7km/h 10mph /  16.1km/h 55% 0.00in /  0mm 210 W/m2
18:30 77.9 °F /  25.5 °C 60.4 °F /  15.8 °C 30.10in /  1019.2hPa NW 6mph /  9.7km/h 12mph /  19.3km/h 55% 0.00in /  0mm 180 W/m2
18:40 77.5 °F /  25.3 °C 61.1 °F /  16.2 °C 30.10in /  1019.2hPa NW 6mph /  9.7km/h 12mph /  19.3km/h 57% 0.00in /  0mm 148 W/m2
18:50 77.2 °F /  25.1 °C 60.8 °F /  16 °C 30.11in /  1019.5hPa NW 3mph /  4.8km/h 10mph /  16.1km/h 57% 0.00in /  0mm 121 W/m2
19:00 76.8 °F /  24.9 °C 61.4 °F /  16.3 °C 30.11in /  1019.5hPa WNW 5mph /  8km/h 8mph /  12.9km/h 59% 0.00in /  0mm 98 W/m2
19:10 76.5 °F /  24.7 °C 61.5 °F /  16.4 °C 30.11in /  1019.5hPa NW 1mph /  1.6km/h 8mph /  12.9km/h 60% 0.00in /  0mm 74 W/m2
19:20 76.1 °F /  24.5 °C 62.1 °F /  16.7 °C 30.11in /  1019.5hPa WNW 3mph /  4.8km/h 6mph /  9.7km/h 62% 0.00in /  0mm 49 W/m2
19:30 75.5 °F /  24.2 °C 61.6 °F /  16.4 °C 30.11in /  1019.5hPa WNW 3mph /  4.8km/h 8mph /  12.9km/h 62% 0.00in /  0mm 36 W/m2
19:40 74.8 °F /  23.8 °C 61.4 °F /  16.3 °C 30.11in /  1019.5hPa West 2mph /  3.2km/h 6mph /  9.7km/h 63% 0.00in /  0mm 23 W/m2
19:50 74.1 °F /  23.4 °C 60.7 °F /  15.9 °C 30.12in /  1019.9hPa West 3mph /  4.8km/h 6mph /  9.7km/h 63% 0.00in /  0mm 13 W/m2
20:00 73.5 °F /  23.1 °C 60.6 °F /  15.9 °C 30.12in /  1019.9hPa West 2mph /  3.2km/h 6mph /  9.7km/h 64% 0.00in /  0mm 6 W/m2
20:10 72.9 °F /  22.7 °C 61.3 °F /  16.3 °C 30.12in /  1019.9hPa West 3mph /  4.8km/h 5mph /  8km/h 67% 0.00in /  0mm 0 W/m2
20:20 72.1 °F /  22.3 °C 61 °F /  16.1 °C 30.12in /  1019.9hPa West 2mph /  3.2km/h 5mph /  8km/h 68% 0.00in /  0mm 0 W/m2
20:30 71.7 °F /  22.1 °C 61 °F /  16.1 °C 30.13in /  1020.2hPa WSW 2mph /  3.2km/h 3mph /  4.8km/h 69% 0.00in /  0mm 0 W/m2
20:40 71.2 °F /  21.8 °C 60.5 °F /  15.8 °C 30.13in /  1020.2hPa WSW 1mph /  1.6km/h 3mph /  4.8km/h 69% 0.00in /  0mm 0 W/m2
20:50 70.7 °F /  21.5 °C 61.2 °F /  16.2 °C 30.13in /  1020.2hPa Calm   2mph /  3.2km/h 72% 0.00in /  0mm 0 W/m2
21:00 70.3 °F /  21.3 °C 61.3 °F /  16.3 °C 30.14in /  1020.5hPa NNW 1mph /  1.6km/h 2mph /  3.2km/h 73% 0.00in /  0mm 0 W/m2
21:10 69.6 °F /  20.9 °C 61.3 °F /  16.3 °C 30.14in /  1020.5hPa SW 1mph /  1.6km/h 2mph /  3.2km/h 75% 0.00in /  0mm 0 W/m2
21:20 69.2 °F /  20.7 °C 61.7 °F /  16.5 °C 30.14in /  1020.5hPa West 2mph /  3.2km/h 4mph /  6.4km/h 77% 0.00in /  0mm 0 W/m2
21:30 68.7 °F /  20.4 °C 60.4 °F /  15.8 °C 30.14in /  1020.5hPa West 3mph /  4.8km/h 5mph /  8km/h 75% 0.00in /  0mm 0 W/m2
21:40 68.2 °F /  20.1 °C 60 °F /  15.6 °C 30.15in /  1020.9hPa West 2mph /  3.2km/h 5mph /  8km/h 75% 0.00in /  0mm 0 W/m2
21:50 67.8 °F /  19.9 °C 60.3 °F /  15.7 °C 30.15in /  1020.9hPa West 2mph /  3.2km/h 5mph /  8km/h 77% 0.00in /  0mm 0 W/m2
22:00 67.3 °F /  19.6 °C 60.2 °F /  15.7 °C 30.15in /  1020.9hPa West 2mph /  3.2km/h 4mph /  6.4km/h 78% 0.00in /  0mm 0 W/m2
22:10 66.7 °F /  19.3 °C 60.4 °F /  15.8 °C 30.15in /  1020.9hPa WSW 1mph /  1.6km/h 2mph /  3.2km/h 80% 0.00in /  0mm 0 W/m2
22:20 66.3 °F /  19.1 °C 60.3 °F /  15.7 °C 30.15in /  1020.9hPa Calm     81% 0.00in /  0mm 0 W/m2
22:30 65.8 °F /  18.8 °C 60.5 °F /  15.8 °C 30.15in /  1020.9hPa WSW 1mph /  1.6km/h 2mph /  3.2km/h 83% 0.00in /  0mm 0 W/m2
22:40 64.9 °F /  18.3 °C 60 °F /  15.6 °C 30.15in /  1020.9hPa Calm   2mph /  3.2km/h 84% 0.00in /  0mm 0 W/m2
22:50 64.6 °F /  18.1 °C 60 °F /  15.6 °C 30.15in /  1020.9hPa WSW 1mph /  1.6km/h 2mph /  3.2km/h 85% 0.00in /  0mm 0 W/m2
23:00 64 °F /  17.8 °C 59.4 °F /  15.2 °C 30.15in /  1020.9hPa SW 1mph /  1.6km/h 3mph /  4.8km/h 85% 0.00in /  0mm 0 W/m2
23:10 63.3 °F /  17.4 °C 59.1 °F /  15.1 °C 30.15in /  1020.9hPa Calm   4mph /  6.4km/h 86% 0.00in /  0mm 0 W/m2
23:20 63 °F /  17.2 °C 58.7 °F /  14.8 °C 30.15in /  1020.9hPa West 1mph /  1.6km/h 3mph /  4.8km/h 86% 0.00in /  0mm 0 W/m2
23:30 62.8 °F /  17.1 °C 59.2 °F /  15.1 °C 30.15in /  1020.9hPa North 1mph /  1.6km/h 3mph /  4.8km/h 88% 0.00in /  0mm 0 W/m2
23:40 62.6 °F /  17 °C 59 °F /  15 °C 30.15in /  1020.9hPa Calm   2mph /  3.2km/h 88% 0.00in /  0mm 0 W/m2
23:50 62.4 °F /  16.9 °C 59.1 °F /  15.1 °C 30.15in /  1020.9hPa Calm   2mph /  3.2km/h 89% 0.00in /  0mm 0 W/m2
Knjazevac, Serbia
Compliments of Weather Underground - 2 mb